sensor_id;sensor_type;location;lat;lon;timestamp;P1;durP1;ratioP1;P2;durP2;ratioP2
4821;SDS011;2425;47.794;13.068;2022-10-16T00:00:43;1.30;;;1.30;;
4821;SDS011;2425;47.794;13.068;2022-10-16T00:03:10;1.83;;;1.83;;
4821;SDS011;2425;47.794;13.068;2022-10-16T00:05:38;1.67;;;1.67;;
4821;SDS011;2425;47.794;13.068;2022-10-16T00:08:05;1.90;;;1.90;;
4821;SDS011;2425;47.794;13.068;2022-10-16T00:10:32;1.77;;;1.73;;
4821;SDS011;2425;47.794;13.068;2022-10-16T00:12:59;1.57;;;1.57;;
4821;SDS011;2425;47.794;13.068;2022-10-16T00:15:26;1.80;;;1.80;;
4821;SDS011;2425;47.794;13.068;2022-10-16T00:17:54;1.50;;;1.50;;
4821;SDS011;2425;47.794;13.068;2022-10-16T00:20:21;1.47;;;1.47;;
4821;SDS011;2425;47.794;13.068;2022-10-16T00:22:47;1.90;;;1.90;;
4821;SDS011;2425;47.794;13.068;2022-10-16T00:25:14;1.73;;;1.73;;
4821;SDS011;2425;47.794;13.068;2022-10-16T00:27:41;1.50;;;1.50;;
4821;SDS011;2425;47.794;13.068;2022-10-16T00:30:08;1.70;;;1.70;;
4821;SDS011;2425;47.794;13.068;2022-10-16T00:32:35;1.40;;;1.40;;
4821;SDS011;2425;47.794;13.068;2022-10-16T00:35:03;1.67;;;1.67;;
4821;SDS011;2425;47.794;13.068;2022-10-16T00:37:31;1.47;;;1.47;;
4821;SDS011;2425;47.794;13.068;2022-10-16T00:39:57;2.00;;;2.00;;
4821;SDS011;2425;47.794;13.068;2022-10-16T00:42:24;1.83;;;1.83;;
4821;SDS011;2425;47.794;13.068;2022-10-16T00:44:52;1.67;;;1.57;;
4821;SDS011;2425;47.794;13.068;2022-10-16T00:47:22;1.43;;;1.43;;
4821;SDS011;2425;47.794;13.068;2022-10-16T00:49:51;1.30;;;1.30;;
4821;SDS011;2425;47.794;13.068;2022-10-16T00:52:22;1.23;;;1.23;;
4821;SDS011;2425;47.794;13.068;2022-10-16T00:54:49;1.60;;;1.60;;
4821;SDS011;2425;47.794;13.068;2022-10-16T00:57:16;1.50;;;1.50;;
4821;SDS011;2425;47.794;13.068;2022-10-16T00:59:43;1.43;;;1.43;;
4821;SDS011;2425;47.794;13.068;2022-10-16T01:02:10;1.10;;;1.10;;
4821;SDS011;2425;47.794;13.068;2022-10-16T01:04:38;1.33;;;1.33;;
4821;SDS011;2425;47.794;13.068;2022-10-16T01:07:08;1.63;;;1.63;;
4821;SDS011;2425;47.794;13.068;2022-10-16T01:09:43;1.60;;;1.60;;
4821;SDS011;2425;47.794;13.068;2022-10-16T01:12:15;1.40;;;1.40;;
4821;SDS011;2425;47.794;13.068;2022-10-16T01:14:48;1.20;;;1.20;;
4821;SDS011;2425;47.794;13.068;2022-10-16T01:17:21;1.47;;;1.47;;
4821;SDS011;2425;47.794;13.068;2022-10-16T01:19:56;1.30;;;1.30;;
4821;SDS011;2425;47.794;13.068;2022-10-16T01:22:33;2.00;;;1.90;;
4821;SDS011;2425;47.794;13.068;2022-10-16T01:25:08;1.63;;;1.53;;
4821;SDS011;2425;47.794;13.068;2022-10-16T01:27:39;1.97;;;1.87;;
4821;SDS011;2425;47.794;13.068;2022-10-16T01:30:08;1.20;;;1.20;;
4821;SDS011;2425;47.794;13.068;2022-10-16T01:32:38;1.40;;;1.40;;
4821;SDS011;2425;47.794;13.068;2022-10-16T01:35:08;1.43;;;1.43;;
4821;SDS011;2425;47.794;13.068;2022-10-16T01:37:38;1.47;;;1.47;;
4821;SDS011;2425;47.794;13.068;2022-10-16T01:40:09;1.40;;;1.40;;
4821;SDS011;2425;47.794;13.068;2022-10-16T01:42:38;1.37;;;1.37;;
4821;SDS011;2425;47.794;13.068;2022-10-16T01:45:08;1.23;;;1.23;;
4821;SDS011;2425;47.794;13.068;2022-10-16T01:47:38;1.30;;;1.30;;
4821;SDS011;2425;47.794;13.068;2022-10-16T01:50:05;1.10;;;1.10;;
4821;SDS011;2425;47.794;13.068;2022-10-16T01:52:34;1.40;;;1.40;;
4821;SDS011;2425;47.794;13.068;2022-10-16T01:55:02;1.50;;;1.50;;
4821;SDS011;2425;47.794;13.068;2022-10-16T01:57:30;1.10;;;1.10;;
4821;SDS011;2425;47.794;13.068;2022-10-16T02:00:00;1.27;;;1.27;;
4821;SDS011;2425;47.794;13.068;2022-10-16T02:02:29;1.20;;;1.20;;
4821;SDS011;2425;47.794;13.068;2022-10-16T02:04:58;1.10;;;1.10;;
4821;SDS011;2425;47.794;13.068;2022-10-16T02:07:26;1.40;;;1.40;;
4821;SDS011;2425;47.794;13.068;2022-10-16T02:09:53;1.30;;;1.30;;
4821;SDS011;2425;47.794;13.068;2022-10-16T02:12:22;1.50;;;1.50;;
4821;SDS011;2425;47.794;13.068;2022-10-16T02:14:51;1.67;;;1.57;;
4821;SDS011;2425;47.794;13.068;2022-10-16T02:17:20;1.27;;;1.27;;
4821;SDS011;2425;47.794;13.068;2022-10-16T02:19:52;1.50;;;1.50;;
4821;SDS011;2425;47.794;13.068;2022-10-16T02:22:35;1.50;;;1.50;;
4821;SDS011;2425;47.794;13.068;2022-10-16T02:25:15;1.60;;;1.60;;
4821;SDS011;2425;47.794;13.068;2022-10-16T02:27:46;1.30;;;1.30;;
4821;SDS011;2425;47.794;13.068;2022-10-16T02:30:17;1.40;;;1.40;;
4821;SDS011;2425;47.794;13.068;2022-10-16T02:32:47;1.30;;;1.30;;
4821;SDS011;2425;47.794;13.068;2022-10-16T02:35:15;1.50;;;1.50;;
4821;SDS011;2425;47.794;13.068;2022-10-16T02:37:43;1.03;;;1.03;;
4821;SDS011;2425;47.794;13.068;2022-10-16T02:40:11;1.40;;;1.40;;
4821;SDS011;2425;47.794;13.068;2022-10-16T02:42:38;1.30;;;1.30;;
4821;SDS011;2425;47.794;13.068;2022-10-16T02:45:06;1.17;;;1.17;;
4821;SDS011;2425;47.794;13.068;2022-10-16T02:47:34;1.27;;;1.27;;
4821;SDS011;2425;47.794;13.068;2022-10-16T02:50:02;1.03;;;1.03;;
4821;SDS011;2425;47.794;13.068;2022-10-16T02:52:30;1.10;;;1.10;;
4821;SDS011;2425;47.794;13.068;2022-10-16T02:54:56;1.40;;;1.40;;
4821;SDS011;2425;47.794;13.068;2022-10-16T02:57:23;1.17;;;1.17;;
4821;SDS011;2425;47.794;13.068;2022-10-16T02:59:50;1.40;;;1.40;;
4821;SDS011;2425;47.794;13.068;2022-10-16T03:02:17;1.03;;;1.03;;
4821;SDS011;2425;47.794;13.068;2022-10-16T03:04:43;1.30;;;1.30;;
4821;SDS011;2425;47.794;13.068;2022-10-16T03:07:11;1.60;;;1.50;;
4821;SDS011;2425;47.794;13.068;2022-10-16T03:09:38;1.10;;;1.10;;
4821;SDS011;2425;47.794;13.068;2022-10-16T03:12:05;1.07;;;1.07;;
4821;SDS011;2425;47.794;13.068;2022-10-16T03:14:31;1.27;;;1.27;;
4821;SDS011;2425;47.794;13.068;2022-10-16T03:16:58;1.40;;;1.40;;
4821;SDS011;2425;47.794;13.068;2022-10-16T03:19:25;1.50;;;1.50;;
4821;SDS011;2425;47.794;13.068;2022-10-16T03:21:52;1.20;;;1.20;;
4821;SDS011;2425;47.794;13.068;2022-10-16T03:24:20;1.23;;;1.23;;
4821;SDS011;2425;47.794;13.068;2022-10-16T03:26:46;1.43;;;1.43;;
4821;SDS011;2425;47.794;13.068;2022-10-16T03:29:13;1.40;;;1.40;;
4821;SDS011;2425;47.794;13.068;2022-10-16T03:31:40;1.00;;;1.00;;
4821;SDS011;2425;47.794;13.068;2022-10-16T03:34:07;1.07;;;1.07;;
4821;SDS011;2425;47.794;13.068;2022-10-16T03:36:34;1.07;;;1.07;;
4821;SDS011;2425;47.794;13.068;2022-10-16T03:39:01;1.10;;;1.10;;
4821;SDS011;2425;47.794;13.068;2022-10-16T03:41:29;1.10;;;1.10;;
4821;SDS011;2425;47.794;13.068;2022-10-16T03:43:56;1.10;;;1.10;;
4821;SDS011;2425;47.794;13.068;2022-10-16T03:46:22;1.20;;;1.20;;
4821;SDS011;2425;47.794;13.068;2022-10-16T03:48:49;1.27;;;1.27;;
4821;SDS011;2425;47.794;13.068;2022-10-16T03:51:16;1.00;;;1.00;;
4821;SDS011;2425;47.794;13.068;2022-10-16T03:53:42;1.20;;;1.20;;
4821;SDS011;2425;47.794;13.068;2022-10-16T03:56:09;1.10;;;1.10;;
4821;SDS011;2425;47.794;13.068;2022-10-16T03:58:37;1.03;;;1.03;;
4821;SDS011;2425;47.794;13.068;2022-10-16T04:01:04;1.17;;;1.17;;
4821;SDS011;2425;47.794;13.068;2022-10-16T04:03:31;1.23;;;1.23;;
4821;SDS011;2425;47.794;13.068;2022-10-16T04:05:57;1.03;;;1.03;;
4821;SDS011;2425;47.794;13.068;2022-10-16T04:08:24;0.90;;;0.90;;
4821;SDS011;2425;47.794;13.068;2022-10-16T04:10:51;1.00;;;1.00;;
4821;SDS011;2425;47.794;13.068;2022-10-16T04:13:17;1.10;;;1.10;;
4821;SDS011;2425;47.794;13.068;2022-10-16T04:15:46;1.10;;;1.10;;
4821;SDS011;2425;47.794;13.068;2022-10-16T04:18:12;1.20;;;1.20;;
4821;SDS011;2425;47.794;13.068;2022-10-16T04:20:39;1.20;;;1.10;;
4821;SDS011;2425;47.794;13.068;2022-10-16T04:23:06;1.40;;;1.40;;
4821;SDS011;2425;47.794;13.068;2022-10-16T04:25:33;1.10;;;1.10;;
4821;SDS011;2425;47.794;13.068;2022-10-16T04:28:00;0.87;;;0.87;;
4821;SDS011;2425;47.794;13.068;2022-10-16T04:30:26;1.23;;;1.23;;
4821;SDS011;2425;47.794;13.068;2022-10-16T04:32:54;1.20;;;1.20;;
4821;SDS011;2425;47.794;13.068;2022-10-16T04:35:21;1.07;;;1.07;;
4821;SDS011;2425;47.794;13.068;2022-10-16T04:37:48;1.00;;;1.00;;
4821;SDS011;2425;47.794;13.068;2022-10-16T04:40:15;1.10;;;1.10;;
4821;SDS011;2425;47.794;13.068;2022-10-16T04:42:42;1.30;;;1.30;;
4821;SDS011;2425;47.794;13.068;2022-10-16T04:45:09;1.13;;;1.13;;
4821;SDS011;2425;47.794;13.068;2022-10-16T04:47:36;1.10;;;1.10;;
4821;SDS011;2425;47.794;13.068;2022-10-16T04:50:05;0.90;;;0.90;;
4821;SDS011;2425;47.794;13.068;2022-10-16T04:52:32;0.90;;;0.90;;
4821;SDS011;2425;47.794;13.068;2022-10-16T04:54:58;1.40;;;1.40;;
4821;SDS011;2425;47.794;13.068;2022-10-16T04:57:27;1.10;;;1.10;;
4821;SDS011;2425;47.794;13.068;2022-10-16T04:59:54;0.80;;;0.80;;
4821;SDS011;2425;47.794;13.068;2022-10-16T05:02:21;1.20;;;1.20;;
4821;SDS011;2425;47.794;13.068;2022-10-16T05:04:48;0.90;;;0.90;;
4821;SDS011;2425;47.794;13.068;2022-10-16T05:07:16;1.00;;;1.00;;
4821;SDS011;2425;47.794;13.068;2022-10-16T05:09:42;0.90;;;0.90;;
4821;SDS011;2425;47.794;13.068;2022-10-16T05:12:09;0.70;;;0.70;;
4821;SDS011;2425;47.794;13.068;2022-10-16T05:14:36;1.10;;;1.10;;
4821;SDS011;2425;47.794;13.068;2022-10-16T05:17:02;0.80;;;0.80;;
4821;SDS011;2425;47.794;13.068;2022-10-16T05:19:29;0.80;;;0.80;;
4821;SDS011;2425;47.794;13.068;2022-10-16T05:21:56;1.03;;;1.03;;
4821;SDS011;2425;47.794;13.068;2022-10-16T05:24:24;1.00;;;1.00;;
4821;SDS011;2425;47.794;13.068;2022-10-16T05:26:51;1.00;;;1.00;;
4821;SDS011;2425;47.794;13.068;2022-10-16T05:29:18;0.97;;;0.97;;
4821;SDS011;2425;47.794;13.068;2022-10-16T05:31:45;1.03;;;1.03;;
4821;SDS011;2425;47.794;13.068;2022-10-16T05:34:12;0.90;;;0.90;;
4821;SDS011;2425;47.794;13.068;2022-10-16T05:36:38;1.00;;;1.00;;
4821;SDS011;2425;47.794;13.068;2022-10-16T05:39:05;1.00;;;1.00;;
4821;SDS011;2425;47.794;13.068;2022-10-16T05:41:33;1.20;;;1.20;;
4821;SDS011;2425;47.794;13.068;2022-10-16T05:44:02;0.90;;;0.90;;
4821;SDS011;2425;47.794;13.068;2022-10-16T05:46:30;1.13;;;1.13;;
4821;SDS011;2425;47.794;13.068;2022-10-16T05:48:57;1.10;;;1.10;;
4821;SDS011;2425;47.794;13.068;2022-10-16T05:51:23;1.10;;;1.10;;
4821;SDS011;2425;47.794;13.068;2022-10-16T05:53:51;1.00;;;1.00;;
4821;SDS011;2425;47.794;13.068;2022-10-16T05:56:18;0.90;;;0.90;;
4821;SDS011;2425;47.794;13.068;2022-10-16T05:58:46;1.00;;;1.00;;
4821;SDS011;2425;47.794;13.068;2022-10-16T06:01:13;1.10;;;1.10;;
4821;SDS011;2425;47.794;13.068;2022-10-16T06:03:41;0.97;;;0.97;;
4821;SDS011;2425;47.794;13.068;2022-10-16T06:06:08;0.93;;;0.93;;
4821;SDS011;2425;47.794;13.068;2022-10-16T06:08:36;1.07;;;1.07;;
4821;SDS011;2425;47.794;13.068;2022-10-16T06:11:03;1.00;;;1.00;;
4821;SDS011;2425;47.794;13.068;2022-10-16T06:13:31;0.90;;;0.90;;
4821;SDS011;2425;47.794;13.068;2022-10-16T06:15:59;0.90;;;0.90;;
4821;SDS011;2425;47.794;13.068;2022-10-16T06:18:26;0.77;;;0.77;;
4821;SDS011;2425;47.794;13.068;2022-10-16T06:20:53;0.90;;;0.90;;
4821;SDS011;2425;47.794;13.068;2022-10-16T06:23:20;1.00;;;1.00;;
4821;SDS011;2425;47.794;13.068;2022-10-16T06:25:47;0.93;;;0.93;;
4821;SDS011;2425;47.794;13.068;2022-10-16T06:28:14;0.97;;;0.97;;
4821;SDS011;2425;47.794;13.068;2022-10-16T06:30:41;0.87;;;0.87;;
4821;SDS011;2425;47.794;13.068;2022-10-16T06:33:10;0.80;;;0.80;;
4821;SDS011;2425;47.794;13.068;2022-10-16T06:35:37;1.20;;;1.20;;
4821;SDS011;2425;47.794;13.068;2022-10-16T06:38:03;1.10;;;1.10;;
4821;SDS011;2425;47.794;13.068;2022-10-16T06:40:30;1.00;;;1.00;;
4821;SDS011;2425;47.794;13.068;2022-10-16T06:42:57;1.10;;;1.10;;
4821;SDS011;2425;47.794;13.068;2022-10-16T06:45:24;1.00;;;1.00;;
4821;SDS011;2425;47.794;13.068;2022-10-16T06:47:50;0.93;;;0.93;;
4821;SDS011;2425;47.794;13.068;2022-10-16T06:50:18;1.00;;;1.00;;
4821;SDS011;2425;47.794;13.068;2022-10-16T06:52:45;0.80;;;0.80;;
4821;SDS011;2425;47.794;13.068;2022-10-16T06:55:12;0.80;;;0.80;;
4821;SDS011;2425;47.794;13.068;2022-10-16T06:57:39;1.07;;;1.07;;
4821;SDS011;2425;47.794;13.068;2022-10-16T07:00:06;0.80;;;0.80;;
4821;SDS011;2425;47.794;13.068;2022-10-16T07:02:34;0.87;;;0.87;;
4821;SDS011;2425;47.794;13.068;2022-10-16T07:05:00;0.77;;;0.77;;
4821;SDS011;2425;47.794;13.068;2022-10-16T07:07:29;0.60;;;0.60;;
4821;SDS011;2425;47.794;13.068;2022-10-16T07:09:55;0.90;;;0.90;;
4821;SDS011;2425;47.794;13.068;2022-10-16T07:12:22;0.80;;;0.80;;
4821;SDS011;2425;47.794;13.068;2022-10-16T07:14:49;0.83;;;0.83;;
4821;SDS011;2425;47.794;13.068;2022-10-16T07:17:17;0.70;;;0.70;;
4821;SDS011;2425;47.794;13.068;2022-10-16T07:19:44;0.80;;;0.80;;
4821;SDS011;2425;47.794;13.068;2022-10-16T07:22:11;0.97;;;0.97;;
4821;SDS011;2425;47.794;13.068;2022-10-16T07:24:39;0.87;;;0.87;;
4821;SDS011;2425;47.794;13.068;2022-10-16T07:27:06;0.83;;;0.83;;
4821;SDS011;2425;47.794;13.068;2022-10-16T07:29:32;0.90;;;0.90;;
4821;SDS011;2425;47.794;13.068;2022-10-16T07:31:59;0.90;;;0.90;;
4821;SDS011;2425;47.794;13.068;2022-10-16T07:34:26;0.77;;;0.77;;
4821;SDS011;2425;47.794;13.068;2022-10-16T07:36:53;0.97;;;0.97;;
4821;SDS011;2425;47.794;13.068;2022-10-16T07:39:19;1.00;;;1.00;;
4821;SDS011;2425;47.794;13.068;2022-10-16T07:41:47;1.00;;;1.00;;
4821;SDS011;2425;47.794;13.068;2022-10-16T07:44:15;0.83;;;0.83;;
4821;SDS011;2425;47.794;13.068;2022-10-16T07:46:42;1.07;;;1.07;;
4821;SDS011;2425;47.794;13.068;2022-10-16T07:49:08;0.80;;;0.80;;
4821;SDS011;2425;47.794;13.068;2022-10-16T07:51:35;0.83;;;0.83;;
4821;SDS011;2425;47.794;13.068;2022-10-16T07:54:03;0.93;;;0.93;;
4821;SDS011;2425;47.794;13.068;2022-10-16T07:56:30;1.00;;;1.00;;
4821;SDS011;2425;47.794;13.068;2022-10-16T07:58:58;1.07;;;1.07;;
4821;SDS011;2425;47.794;13.068;2022-10-16T08:01:25;0.90;;;0.90;;
4821;SDS011;2425;47.794;13.068;2022-10-16T08:03:52;0.80;;;0.80;;
4821;SDS011;2425;47.794;13.068;2022-10-16T08:06:19;1.00;;;1.00;;
4821;SDS011;2425;47.794;13.068;2022-10-16T08:08:47;0.70;;;0.70;;
4821;SDS011;2425;47.794;13.068;2022-10-16T08:11:14;0.80;;;0.80;;
4821;SDS011;2425;47.794;13.068;2022-10-16T08:13:40;1.00;;;1.00;;
4821;SDS011;2425;47.794;13.068;2022-10-16T08:16:09;0.77;;;0.77;;
4821;SDS011;2425;47.794;13.068;2022-10-16T08:18:36;0.80;;;0.80;;
4821;SDS011;2425;47.794;13.068;2022-10-16T08:21:04;0.83;;;0.83;;
4821;SDS011;2425;47.794;13.068;2022-10-16T08:23:32;0.70;;;0.70;;
4821;SDS011;2425;47.794;13.068;2022-10-16T08:26:02;0.87;;;0.87;;
4821;SDS011;2425;47.794;13.068;2022-10-16T08:28:29;0.63;;;0.63;;
4821;SDS011;2425;47.794;13.068;2022-10-16T08:30:56;0.90;;;0.90;;
4821;SDS011;2425;47.794;13.068;2022-10-16T08:33:24;0.97;;;0.97;;
4821;SDS011;2425;47.794;13.068;2022-10-16T08:35:51;0.90;;;0.90;;
4821;SDS011;2425;47.794;13.068;2022-10-16T08:38:19;1.20;;;1.20;;
4821;SDS011;2425;47.794;13.068;2022-10-16T08:40:46;1.23;;;1.23;;
4821;SDS011;2425;47.794;13.068;2022-10-16T08:43:31;1.43;;;1.33;;
4821;SDS011;2425;47.794;13.068;2022-10-16T08:46:10;1.20;;;1.20;;
4821;SDS011;2425;47.794;13.068;2022-10-16T08:48:47;1.30;;;1.30;;
4821;SDS011;2425;47.794;13.068;2022-10-16T08:51:18;1.13;;;1.13;;
4821;SDS011;2425;47.794;13.068;2022-10-16T08:53:48;1.20;;;1.20;;
4821;SDS011;2425;47.794;13.068;2022-10-16T08:56:17;1.13;;;1.13;;
4821;SDS011;2425;47.794;13.068;2022-10-16T08:58:44;1.10;;;1.10;;
4821;SDS011;2425;47.794;13.068;2022-10-16T09:01:12;1.30;;;1.30;;
4821;SDS011;2425;47.794;13.068;2022-10-16T09:03:43;1.00;;;1.00;;
4821;SDS011;2425;47.794;13.068;2022-10-16T09:09:09;0.97;;;0.97;;
4821;SDS011;2425;47.794;13.068;2022-10-16T09:11:48;1.40;;;1.40;;
4821;SDS011;2425;47.794;13.068;2022-10-16T09:14:23;0.87;;;0.87;;
4821;SDS011;2425;47.794;13.068;2022-10-16T09:17:13;0.93;;;0.93;;
4821;SDS011;2425;47.794;13.068;2022-10-16T09:19:50;0.80;;;0.80;;
4821;SDS011;2425;47.794;13.068;2022-10-16T09:22:18;0.90;;;0.90;;
4821;SDS011;2425;47.794;13.068;2022-10-16T09:24:48;0.70;;;0.70;;
4821;SDS011;2425;47.794;13.068;2022-10-16T09:27:15;0.80;;;0.80;;
4821;SDS011;2425;47.794;13.068;2022-10-16T09:29:42;0.70;;;0.70;;
4821;SDS011;2425;47.794;13.068;2022-10-16T09:32:10;1.00;;;1.00;;
4821;SDS011;2425;47.794;13.068;2022-10-16T09:34:39;0.70;;;0.70;;
4821;SDS011;2425;47.794;13.068;2022-10-16T09:37:11;3.77;;;1.10;;
4821;SDS011;2425;47.794;13.068;2022-10-16T09:39:46;11.00;;;2.13;;
4821;SDS011;2425;47.794;13.068;2022-10-16T09:42:14;8.53;;;2.13;;
4821;SDS011;2425;47.794;13.068;2022-10-16T09:44:42;8.20;;;2.13;;
4821;SDS011;2425;47.794;13.068;2022-10-16T09:47:15;15.13;;;2.17;;
4821;SDS011;2425;47.794;13.068;2022-10-16T09:49:50;3.43;;;1.97;;
4821;SDS011;2425;47.794;13.068;2022-10-16T09:52:19;7.83;;;2.10;;
4821;SDS011;2425;47.794;13.068;2022-10-16T09:54:49;4.53;;;1.60;;
4821;SDS011;2425;47.794;13.068;2022-10-16T09:57:16;1.50;;;1.40;;
4821;SDS011;2425;47.794;13.068;2022-10-16T09:59:46;1.13;;;1.00;;
4821;SDS011;2425;47.794;13.068;2022-10-16T10:02:14;3.90;;;1.63;;
4821;SDS011;2425;47.794;13.068;2022-10-16T10:04:44;2.40;;;1.30;;
4821;SDS011;2425;47.794;13.068;2022-10-16T10:07:20;1.70;;;1.30;;
4821;SDS011;2425;47.794;13.068;2022-10-16T10:09:50;1.33;;;1.10;;
4821;SDS011;2425;47.794;13.068;2022-10-16T10:12:17;1.17;;;0.70;;
4821;SDS011;2425;47.794;13.068;2022-10-16T10:14:46;1.60;;;1.20;;
4821;SDS011;2425;47.794;13.068;2022-10-16T10:17:15;1.70;;;1.10;;
4821;SDS011;2425;47.794;13.068;2022-10-16T10:19:47;1.03;;;0.83;;
4821;SDS011;2425;47.794;13.068;2022-10-16T10:22:21;0.90;;;0.90;;
4821;SDS011;2425;47.794;13.068;2022-10-16T10:30:44;0.90;;;0.90;;
4821;SDS011;2425;47.794;13.068;2022-10-16T10:33:18;0.83;;;0.83;;
4821;SDS011;2425;47.794;13.068;2022-10-16T10:35:51;2.70;;;1.20;;
4821;SDS011;2425;47.794;13.068;2022-10-16T10:38:25;2.13;;;1.80;;
4821;SDS011;2425;47.794;13.068;2022-10-16T10:40:59;1.80;;;1.00;;
4821;SDS011;2425;47.794;13.068;2022-10-16T10:43:37;1.57;;;1.47;;
4821;SDS011;2425;47.794;13.068;2022-10-16T10:46:12;2.77;;;1.27;;
4821;SDS011;2425;47.794;13.068;2022-10-16T10:51:49;5.73;;;1.30;;
4821;SDS011;2425;47.794;13.068;2022-10-16T10:54:25;1.97;;;1.60;;
4821;SDS011;2425;47.794;13.068;2022-10-16T10:56:57;1.07;;;1.07;;
4821;SDS011;2425;47.794;13.068;2022-10-16T11:02:32;2.00;;;0.90;;
4821;SDS011;2425;47.794;13.068;2022-10-16T11:05:21;1.00;;;1.00;;
4821;SDS011;2425;47.794;13.068;2022-10-16T11:07:54;1.27;;;1.00;;
4821;SDS011;2425;47.794;13.068;2022-10-16T11:10:25;1.00;;;0.93;;
4821;SDS011;2425;47.794;13.068;2022-10-16T11:12:54;0.73;;;0.70;;
4821;SDS011;2425;47.794;13.068;2022-10-16T11:15:25;0.73;;;0.73;;
4821;SDS011;2425;47.794;13.068;2022-10-16T11:17:57;1.23;;;0.80;;
4821;SDS011;2425;47.794;13.068;2022-10-16T11:20:27;1.17;;;1.17;;
4821;SDS011;2425;47.794;13.068;2022-10-16T11:22:56;0.97;;;0.90;;
4821;SDS011;2425;47.794;13.068;2022-10-16T11:25:29;1.17;;;1.10;;
4821;SDS011;2425;47.794;13.068;2022-10-16T11:27:57;2.00;;;0.90;;
4821;SDS011;2425;47.794;13.068;2022-10-16T11:30:29;1.23;;;0.80;;
4821;SDS011;2425;47.794;13.068;2022-10-16T11:33:01;0.90;;;0.90;;
4821;SDS011;2425;47.794;13.068;2022-10-16T11:35:36;1.77;;;0.90;;
4821;SDS011;2425;47.794;13.068;2022-10-16T11:40:38;6.43;;;1.00;;
4821;SDS011;2425;47.794;13.068;2022-10-16T11:43:10;2.40;;;1.10;;
4821;SDS011;2425;47.794;13.068;2022-10-16T11:45:42;1.63;;;1.17;;
4821;SDS011;2425;47.794;13.068;2022-10-16T11:48:15;1.10;;;1.10;;
4821;SDS011;2425;47.794;13.068;2022-10-16T11:50:48;1.40;;;1.30;;
4821;SDS011;2425;47.794;13.068;2022-10-16T11:53:18;1.07;;;0.87;;
4821;SDS011;2425;47.794;13.068;2022-10-16T11:55:51;1.17;;;1.07;;
4821;SDS011;2425;47.794;13.068;2022-10-16T11:58:21;1.10;;;1.10;;
4821;SDS011;2425;47.794;13.068;2022-10-16T12:00:53;1.03;;;1.03;;
4821;SDS011;2425;47.794;13.068;2022-10-16T12:03:26;0.93;;;0.93;;
4821;SDS011;2425;47.794;13.068;2022-10-16T12:05:59;0.97;;;0.97;;
4821;SDS011;2425;47.794;13.068;2022-10-16T12:08:43;1.10;;;1.00;;
4821;SDS011;2425;47.794;13.068;2022-10-16T12:11:22;0.80;;;0.80;;
4821;SDS011;2425;47.794;13.068;2022-10-16T12:13:51;0.60;;;0.60;;
4821;SDS011;2425;47.794;13.068;2022-10-16T12:16:22;0.80;;;0.80;;
4821;SDS011;2425;47.794;13.068;2022-10-16T12:18:49;0.60;;;0.60;;
4821;SDS011;2425;47.794;13.068;2022-10-16T12:21:16;1.20;;;1.10;;
4821;SDS011;2425;47.794;13.068;2022-10-16T12:23:47;0.87;;;0.80;;
4821;SDS011;2425;47.794;13.068;2022-10-16T12:26:24;0.60;;;0.60;;
4821;SDS011;2425;47.794;13.068;2022-10-16T12:28:52;0.70;;;0.70;;
4821;SDS011;2425;47.794;13.068;2022-10-16T12:31:19;0.77;;;0.63;;
4821;SDS011;2425;47.794;13.068;2022-10-16T12:33:53;0.87;;;0.87;;
4821;SDS011;2425;47.794;13.068;2022-10-16T12:36:27;0.87;;;0.87;;
4821;SDS011;2425;47.794;13.068;2022-10-16T12:38:55;1.30;;;1.20;;
4821;SDS011;2425;47.794;13.068;2022-10-16T12:41:27;0.83;;;0.83;;
4821;SDS011;2425;47.794;13.068;2022-10-16T12:43:55;1.20;;;1.10;;
4821;SDS011;2425;47.794;13.068;2022-10-16T12:46:36;5.83;;;0.93;;
4821;SDS011;2425;47.794;13.068;2022-10-16T12:49:05;1.20;;;0.93;;
4821;SDS011;2425;47.794;13.068;2022-10-16T12:51:50;1.17;;;1.03;;
4821;SDS011;2425;47.794;13.068;2022-10-16T12:54:21;1.07;;;0.90;;
4821;SDS011;2425;47.794;13.068;2022-10-16T12:56:55;1.40;;;1.40;;
4821;SDS011;2425;47.794;13.068;2022-10-16T12:59:32;0.83;;;0.83;;
4821;SDS011;2425;47.794;13.068;2022-10-16T13:02:06;1.37;;;0.90;;
4821;SDS011;2425;47.794;13.068;2022-10-16T13:04:47;0.97;;;0.97;;
4821;SDS011;2425;47.794;13.068;2022-10-16T13:07:48;0.90;;;0.90;;
4821;SDS011;2425;47.794;13.068;2022-10-16T13:10:24;1.23;;;0.83;;
4821;SDS011;2425;47.794;13.068;2022-10-16T13:13:08;1.00;;;1.00;;
4821;SDS011;2425;47.794;13.068;2022-10-16T13:18:32;0.80;;;0.80;;
4821;SDS011;2425;47.794;13.068;2022-10-16T13:21:07;0.73;;;0.73;;
4821;SDS011;2425;47.794;13.068;2022-10-16T13:23:42;0.83;;;0.83;;
4821;SDS011;2425;47.794;13.068;2022-10-16T13:26:15;0.80;;;0.80;;
4821;SDS011;2425;47.794;13.068;2022-10-16T13:28:47;0.83;;;0.83;;
4821;SDS011;2425;47.794;13.068;2022-10-16T13:31:15;0.70;;;0.70;;
4821;SDS011;2425;47.794;13.068;2022-10-16T13:33:45;0.70;;;0.70;;
4821;SDS011;2425;47.794;13.068;2022-10-16T13:36:20;0.50;;;0.50;;
4821;SDS011;2425;47.794;13.068;2022-10-16T13:38:47;0.53;;;0.53;;
4821;SDS011;2425;47.794;13.068;2022-10-16T13:41:15;0.77;;;0.77;;
4821;SDS011;2425;47.794;13.068;2022-10-16T13:43:44;0.80;;;0.80;;
4821;SDS011;2425;47.794;13.068;2022-10-16T13:46:13;1.27;;;0.87;;
4821;SDS011;2425;47.794;13.068;2022-10-16T13:48:41;0.80;;;0.80;;
4821;SDS011;2425;47.794;13.068;2022-10-16T13:51:11;0.90;;;0.80;;
4821;SDS011;2425;47.794;13.068;2022-10-16T13:53:39;0.60;;;0.60;;
4821;SDS011;2425;47.794;13.068;2022-10-16T13:56:07;0.60;;;0.60;;
4821;SDS011;2425;47.794;13.068;2022-10-16T13:58:37;0.60;;;0.60;;
4821;SDS011;2425;47.794;13.068;2022-10-16T14:01:04;0.50;;;0.50;;
4821;SDS011;2425;47.794;13.068;2022-10-16T14:03:33;0.60;;;0.60;;
4821;SDS011;2425;47.794;13.068;2022-10-16T14:06:01;0.50;;;0.50;;
4821;SDS011;2425;47.794;13.068;2022-10-16T14:08:29;0.70;;;0.70;;
4821;SDS011;2425;47.794;13.068;2022-10-16T14:10:57;0.50;;;0.50;;
4821;SDS011;2425;47.794;13.068;2022-10-16T14:13:28;0.43;;;0.43;;
4821;SDS011;2425;47.794;13.068;2022-10-16T14:15:57;0.47;;;0.47;;
4821;SDS011;2425;47.794;13.068;2022-10-16T14:18:26;0.50;;;0.50;;
4821;SDS011;2425;47.794;13.068;2022-10-16T14:20:55;0.70;;;0.70;;
4821;SDS011;2425;47.794;13.068;2022-10-16T14:23:29;0.53;;;0.53;;
4821;SDS011;2425;47.794;13.068;2022-10-16T14:26:14;0.60;;;0.60;;
4821;SDS011;2425;47.794;13.068;2022-10-16T14:28:43;0.50;;;0.50;;
4821;SDS011;2425;47.794;13.068;2022-10-16T14:31:26;0.50;;;0.50;;
4821;SDS011;2425;47.794;13.068;2022-10-16T14:33:54;2.00;;;0.60;;
4821;SDS011;2425;47.794;13.068;2022-10-16T14:36:22;0.63;;;0.63;;
4821;SDS011;2425;47.794;13.068;2022-10-16T14:38:53;0.77;;;0.77;;
4821;SDS011;2425;47.794;13.068;2022-10-16T14:41:24;0.50;;;0.50;;
4821;SDS011;2425;47.794;13.068;2022-10-16T14:43:51;0.70;;;0.70;;
4821;SDS011;2425;47.794;13.068;2022-10-16T14:46:20;0.93;;;0.83;;
4821;SDS011;2425;47.794;13.068;2022-10-16T14:48:51;0.70;;;0.70;;
4821;SDS011;2425;47.794;13.068;2022-10-16T14:51:22;0.60;;;0.60;;
4821;SDS011;2425;47.794;13.068;2022-10-16T14:53:49;0.70;;;0.70;;
4821;SDS011;2425;47.794;13.068;2022-10-16T14:56:16;0.50;;;0.50;;
4821;SDS011;2425;47.794;13.068;2022-10-16T14:58:44;0.60;;;0.60;;
4821;SDS011;2425;47.794;13.068;2022-10-16T15:01:11;0.50;;;0.50;;
4821;SDS011;2425;47.794;13.068;2022-10-16T15:03:38;0.40;;;0.40;;
4821;SDS011;2425;47.794;13.068;2022-10-16T15:06:08;0.60;;;0.60;;
4821;SDS011;2425;47.794;13.068;2022-10-16T15:08:37;0.40;;;0.40;;
4821;SDS011;2425;47.794;13.068;2022-10-16T15:11:04;0.50;;;0.50;;
4821;SDS011;2425;47.794;13.068;2022-10-16T15:13:31;0.50;;;0.50;;
4821;SDS011;2425;47.794;13.068;2022-10-16T15:15:58;0.55;;;0.55;;
4821;SDS011;2425;47.794;13.068;2022-10-16T15:18:24;0.50;;;0.50;;
4821;SDS011;2425;47.794;13.068;2022-10-16T15:20:52;0.60;;;0.60;;
4821;SDS011;2425;47.794;13.068;2022-10-16T15:23:19;0.40;;;0.40;;
4821;SDS011;2425;47.794;13.068;2022-10-16T15:25:49;0.50;;;0.50;;
4821;SDS011;2425;47.794;13.068;2022-10-16T15:28:18;0.50;;;0.50;;
4821;SDS011;2425;47.794;13.068;2022-10-16T15:30:45;0.57;;;0.57;;
4821;SDS011;2425;47.794;13.068;2022-10-16T15:33:13;0.50;;;0.50;;